• Join FlightAware (Why Join?)
  • Login
  • US Flag 
10:25AM EDT


 

Airport Tracker/Info


-or-


 

Live Flight TrackerFlight Track Log ✈ SWA2852 ✈ 17-Apr-2013 ✈ KROC - KSTL

Flight Track Log - Related Links

Times and Time Zones

All times are in EDT time to prevent confusion due to time zone crossing. See the SWA2852 flight status page for this flight to view local times or setup timezone preferences in your user account.

Time Position Orientation Groundspeed Altitude Reporting Facility
EDT Latitude Longitude Course Direction KTS MPH feet Rate Location/Type
03:58PM 43.1567 -77.7286 303° West 223 257 3,800  Level Cleveland Center
03:58PM 43.1594 -77.7656 276° West 238 274 4,800 3,000 Climbing Cleveland Center
04:00PM 43.1728 -77.9700 275° West 277 319 11,600 3,300 Climbing Cleveland Center
04:01PM 43.1589 -78.0958 261° West 316 364 14,700 3,060 Climbing Cleveland Center
04:02PM 43.0731 -78.1789 215° Southwest 323 372 17,800 3,180 Climbing Cleveland Center
04:03PM 42.9894 -78.2728 219° Southwest 350 403 21,100 3,000 Climbing Cleveland Center
04:04PM 42.9250 -78.3831 231° Southwest 370 426 23,900 2,520 Climbing Cleveland Center
04:05PM 42.8753 -78.5122 242° Southwest 383 441 26,200 2,160 Climbing Cleveland Center
04:06PM 42.8253 -78.6442 243° Southwest 388 447 28,300 2,100 Climbing Cleveland Center
04:07PM 42.7733 -78.7786 242° Southwest 399 459 30,400 1,800 Climbing Cleveland Center
04:08PM 42.7211 -78.9103 242° Southwest 405 466 32,000 1,320 Climbing Cleveland Center
04:09PM 42.6689 -79.0414 242° Southwest 405 466 33,100 1,380 Climbing Cleveland Center
04:10PM 42.6164 -79.1781 242° Southwest 405 466 34,800 1,740 Climbing Cleveland Center
04:11PM 42.5594 -79.3147 241° Southwest 405 466 36,600 1,620 Climbing Cleveland Center
04:12PM 42.5108 -79.4425 243° Southwest 400 460 38,100 1,560 Climbing Cleveland Center
04:13PM 42.4517 -79.5814 240° Southwest 400 460 39,800 900 Climbing Cleveland Center
04:14PM 42.3964 -79.7117 240° Southwest 395 455 40,000 60 Climbing Cleveland Center
04:15PM 42.3472 -79.8331 241° Southwest 395 455 40,000  Level Cleveland Center
04:16PM 42.2958 -79.9600 241° Southwest 395 455 40,000  Level Cleveland Center
04:17PM 42.2444 -80.0894 242° Southwest 401 461 40,000  Level Cleveland Center
04:18PM 42.2011 -80.2244 247° West 389 448 40,000  Level Cleveland Center
04:19PM 42.1767 -80.3647 257° West 389 448 40,000  Level Cleveland Center
04:20PM 42.1539 -80.5047 258° West 383 441 40,000  Level Cleveland Center
04:21PM 42.1308 -80.6447 258° West 388 447 40,000  Level Cleveland Center
04:22PM 42.1056 -80.7875 257° West 394 453 40,000  Level Cleveland Center
04:23PM 42.0803 -80.9244 256° West 388 447 40,000  Level Cleveland Center
04:24PM 42.0569 -81.0642 257° West 388 447 40,000  Level Cleveland Center
04:25PM 42.0311 -81.2064 256° West 395 455 40,000  Level Cleveland Center
04:26PM 42.0053 -81.3489 256° West 395 455 40,000  Level Cleveland Center
04:27PM 41.9794 -81.4881 256° West 395 455 40,000  Level Cleveland Center
04:28PM 41.9531 -81.6331 256° West 395 455 40,000  Level Cleveland Center
04:29PM 41.9311 -81.7611 257° West 395 455 40,000  Level Cleveland Center
04:30PM 41.9022 -81.9028 255° West 395 455 40,000  Level Cleveland Center
04:31PM 41.8756 -82.0500 256° West 400 460 40,000  Level Cleveland Center
04:32PM 41.8464 -82.2056 256° West 395 455 40,000  Level Cleveland Center
04:33PM 41.8169 -82.3494 255° West 395 455 40,000  Level Cleveland Center
04:34PM 41.7897 -82.4908 256° West 395 455 40,000  Level Cleveland Center
04:35PM 41.7644 -82.6292 256° West 395 455 40,000  Level Cleveland Center
04:36PM 41.7369 -82.7647 255° West 389 448 40,000  Level Cleveland Center
04:37PM 41.7092 -82.9058 255° West 389 448 40,000  Level Cleveland Center
04:38PM 41.6833 -83.0411 256° West 389 448 40,000  Level Cleveland Center
04:39PM 41.6556 -83.1733 254° West 389 448 40,000  Level Cleveland Center
04:40PM 41.6294 -83.3114 256° West 384 442 40,000  Level Cleveland Center
04:41PM 41.6031 -83.4461 255° West 384 442 40,000  Level Cleveland Center
04:42PM 41.5747 -83.5811 254° West 379 436 40,000  Level Cleveland Center
04:43PM 41.5506 -83.7019 255° West 379 436 40,000  Level Cleveland Center
04:44PM 41.5217 -83.8367 254° West 379 436 40,000  Level Cleveland Center
04:45PM 41.4950 -83.9711 255° West 379 436 40,000 -360 Level Cleveland Center
04:46PM 41.4658 -84.1053 254° West 379 436 39,300 -1,560 Descending Cleveland Center
04:47PM 41.4575 -84.2381 265° West 374 430 36,900 -2,340 Descending Cleveland Center
04:50PM 41.4769 -84.5525 275° West 378 435 31,900 -2,160 Descending Chicago Center
04:51PM 41.4819 -84.6881 273° West 368 423 30,000 -1,080 Descending Chicago Center
04:52PM 41.4878 -84.8214 273° West 362 417 29,800 -1,500 Descending Chicago Center
04:53PM 41.4919 -84.9581 272° West 367 422 26,900 -2,220 Descending Chicago Center
04:54PM 41.4964 -85.0939 273° West 365 420 25,300 -1,380 Descending Chicago Center
04:55PM 41.5006 -85.2142 273° West 330 380 24,100 -1,140 Descending Chicago Center
04:56PM 41.5044 -85.3244 273° West 300 345 23,000 -1,200 Descending Chicago Center
04:57PM 41.5067 -85.4289 272° West 282 325 21,700 -1,260 Descending Chicago Center
04:58PM 41.5097 -85.5286 272° West 264 304 20,400 -840 Descending Chicago Center
04:59PM 41.5131 -85.6422 272° West 255 293 20,000 -240 Descending Chicago Center
05:00PM 41.5164 -85.7358 273° West 253 291 20,000  Level Chicago Center
05:01PM 41.5189 -85.8244 272° West 241 277 20,000  Level Chicago Center
05:02PM 41.5211 -85.9106 272° West 233 268 20,000 -1,260 Level Chicago Center
05:03PM 41.5211 -86.0089 270° West 264 304 17,500 -2,400 Descending Chicago Center
05:04PM 41.5217 -86.1250 270° West 308 354 15,200 -2,040 Descending Chicago Center
05:05PM 41.5225 -86.2333 271° West 296 341 13,400 -1,740 Descending Chicago Center
05:06PM 41.5231 -86.3394 270° West 286 329 11,700 -1,320 Descending Chicago Center
05:07PM 41.5225 -86.4417 270° West 278 320 10,700 -840 Descending Chicago Center
05:08PM 41.5214 -86.5572 269° West 261 300 10,000 -360 Descending Chicago Center
05:09PM 41.5206 -86.6364 269° West 220 253 10,000  Level Chicago Center
05:10PM 41.5203 -86.7172 270° West 215 247 10,000  Level Chicago Center
05:11PM 41.5194 -86.7950 269° West 211 243 10,000  Level Chicago Center
05:12PM 41.5183 -86.8725 269° West 211 243 10,000  Level Chicago Center
05:13PM 41.5317 -86.9467 284° West 219 252 10,000  Level Chicago Center
05:14PM 41.5953 -86.9314 10° North 277 319 10,000  Level Chicago Center
05:15PM 41.6019 -86.8264 85° East 285 328 10,000  Level Chicago Center
05:16PM 41.6100 -86.7039 85° East 281 323 10,000  Level Chicago Center
05:17PM 41.5731 -86.6333 125° Southeast 257 296 10,000  Level Chicago Center
05:18PM 41.5306 -86.6725 215° Southwest 203 234 10,000  Level Chicago Center
05:19PM 41.4911 -86.7186 221° Southwest 208 239 10,000  Level Chicago Center
05:20PM 41.4394 -86.7483 203° Southwest 204 235 10,000  Level Chicago Center
05:21PM 41.3778 -86.7836 203° Southwest 235 270 10,000  Level Chicago Center
05:22PM 41.3225 -86.8369 216° Southwest 245 282 10,000  Level Chicago Center
05:23PM 41.2875 -86.9142 239° Southwest 247 284 10,000  Level Chicago Center
05:24PM 41.2450 -87.0036 238° Southwest 241 277 10,000  Level Chicago Center
05:25PM 41.2028 -87.0903 237° Southwest 273 314 10,000  Level Chicago Center
05:26PM 41.2000 -87.1872 268° West 288 331 10,000  Level Chicago Center
05:27PM 41.2164 -87.2917 282° West 290 334 10,000  Level Chicago Center
05:28PM 41.2300 -87.3889 281° West 277 319 10,000  Level Chicago Center
05:30PM 41.2739 -87.4728 305° West 277 319 10,000  Level Chicago Center
05:31PM 41.3306 -87.5431 317° Northwest 280 322 10,000 -540 Level Chicago Center
05:32PM 41.4114 -87.6133 327° Northwest 295 339 9,000 -1,200 Descending Chicago Center
05:33PM 41.4658 -87.6853 315° West 282 325 7,600 -1,440 Descending Chicago Center
05:34PM 41.5278 -87.7453 324° Northwest 292 336 6,100 -1,620 Descending Chicago Center
05:35PM 41.5942 -87.6778 37° Northeast 306 352 4,400 -1,500 Descending Chicago Center
05:36PM 41.6456 -87.6058 46° Northeast 296 341 3,100 -960 Descending Chicago Center
05:37PM 41.6981 -87.6411 333° Northwest 243 280 2,500 -360 Descending Chicago Center
05:37PM 41.7167 -87.6667 314° West 152 175 2,600 -480 Climbing Chicago TRACON
05:38PM 41.7333 -87.6833 323° Northwest 139 160 1,900 120 Descending Chicago TRACON
05:39PM 41.7833 -87.7000 346° North 174 200 2,900 540 Climbing Chicago TRACON
05:40PM 41.8000 -87.6500 66° East 229 264 3,100 120 Climbing Chicago TRACON
05:41PM 41.7731 -87.5850 119° Southeast 217 250 3,200 1,200 Climbing Chicago Center
05:42PM 41.7108 -87.5831 179° South 222 255 5,300 3,180 Climbing Chicago Center
05:43PM 41.6467 -87.6236 205° Southwest 250 288 9,700 4,140 Climbing Chicago Center
05:44PM 41.5806 -87.6581 201° Southwest 255 293 13,900 3,900 Climbing Chicago Center
05:45PM 41.5103 -87.6967 202° Southwest 267 307 17,700 3,240 Climbing Chicago Center
05:46PM 41.4406 -87.7408 205° Southwest 275 316 20,600 2,520 Climbing Chicago Center
05:47PM 41.3733 -87.8119 218° Southwest 306 352 22,900 1,620 Climbing Chicago Center
05:48PM 41.3078 -87.8961 224° Southwest 322 371 24,000 1,020 Climbing Chicago Center
05:49PM 41.2406 -87.9778 222° Southwest 323 372 25,000 960 Climbing Chicago Center
05:50PM 41.1728 -88.0644 224° Southwest 333 383 26,000 480 Climbing Chicago Center
05:51PM 41.0906 -88.1672 223° Southwest 338 389 26,000  Level Chicago Center
05:52PM 41.0242 -88.2494 223° Southwest 329 379 26,000  Level Chicago Center
05:53PM 40.9558 -88.3322 222° Southwest 333 383 26,000  Level Chicago Center
05:54PM 40.8889 -88.4172 224° Southwest 334 384 26,000  Level Chicago Center
05:55PM 40.8158 -88.5064 223° Southwest 357 411 26,000  Level Chicago Center
05:56PM 40.7417 -88.5978 223° Southwest 364 419 26,000  Level Chicago Center
05:57PM 40.6675 -88.6844 222° Southwest 358 412 26,000  Level Chicago Center
05:58PM 40.5967 -88.7719 223° Southwest 353 406 26,000  Level Chicago Center
05:59PM 40.5122 -88.8742 223° Southwest 355 409 26,000  Level Chicago Center
06:00PM 40.4400 -88.9622 223° Southwest 354 407 26,000  Level Chicago Center
06:01PM 40.3653 -89.0514 222° Southwest 361 415 26,000  Level Chicago Center
06:02PM 40.2908 -89.1417 223° Southwest 365 420 26,000  Level Chicago Center
06:03PM 40.2172 -89.2286 222° Southwest 359 413 26,000  Level Chicago Center
06:04PM 40.1439 -89.3169 223° Southwest 357 411 26,000  Level Chicago Center
06:05PM 40.1139 -89.3517 222° Southwest 359 413 26,000 -720 Level Kansas City Center
06:05PM 40.0717 -89.4028 223° Southwest 349 402 25,300 -1,080 Descending Chicago Center
06:06PM 40.0028 -89.4833 222° Southwest 333 383 24,200 -660 Descending Chicago Center
06:07PM 39.9367 -89.5631 223° Southwest 323 372 24,000 -120 Descending Chicago Center
06:08PM 39.8708 -89.6408 222° Southwest 320 368 24,000 -120 Level Chicago Center
06:09PM 39.8439 -89.6739 223° Southwest 322 371 23,900 -780 Descending Kansas City Center
06:10PM 39.8064 -89.7803 245° Southwest 325 374 22,900 -960 Descending Kansas City Center
06:11PM 39.7694 -89.8886 246° West 327 376 22,000 -960 Descending Kansas City Center
06:12PM 39.7328 -89.9997 247° West 331 381 21,000 -540 Descending Kansas City Center
06:13PM 39.6961 -90.1189 248° West 335 386 21,000  Level Kansas City Center
06:14PM 39.6597 -90.2275 247° West 333 383 21,000 -960 Level Kansas City Center
06:15PM 39.5903 -90.3264 228° Southwest 336 387 19,000 -2,640 Descending Kansas City Center
06:16PM 39.4947 -90.3522 192° South 350 403 15,600 -2,880 Descending Kansas City Center
06:17PM 39.4017 -90.3781 192° South 345 397 13,100 -2,520 Descending Kansas City Center
06:17PM 39.3553 -90.3347 144° Southeast 321 369 12,000 -2,280 Descending FAA TRACON SMA TRACON (SMA)
06:18PM 39.3292 -90.3442 196° South 316 364 11,400 -1,860 Descending FAA TRACON SMA TRACON (SMA)
06:18PM 39.2978 -90.3547 195° South 308 354 10,800 -1,440 Descending FAA TRACON SMA TRACON (SMA)
06:18PM 39.2733 -90.3625 194° South 300 345 10,500 -900 Descending FAA TRACON SMA TRACON (SMA)
06:19PM 39.2500 -90.3714 196° South 288 331 10,200 -1,200 Descending FAA TRACON SMA TRACON (SMA)
06:19PM 39.2217 -90.3814 195° South 275 316 9,700 -1,380 Descending FAA TRACON SMA TRACON (SMA)
06:19PM 39.2003 -90.3903 198° South 267 307 9,300 -1,380 Descending FAA TRACON SMA TRACON (SMA)
06:20PM 39.1808 -90.4036 208° Southwest 263 303 8,800 -1,920 Descending FAA TRACON SMA TRACON (SMA)
06:20PM 39.1567 -90.4225 211° Southwest 262 302 8,000 -1,800 Descending FAA TRACON SMA TRACON (SMA)
06:20PM 39.1369 -90.4378 211° Southwest 264 304 7,600 -1,260 Descending FAA TRACON SMA TRACON (SMA)
06:21PM 39.1181 -90.4522 211° Southwest 262 302 7,200 -1,080 Descending FAA TRACON SMA TRACON (SMA)
06:21PM 39.0947 -90.4703 211° Southwest 258 297 6,900 -600 Descending FAA TRACON SMA TRACON (SMA)
06:21PM 39.0775 -90.4833 210° Southwest 244 281 6,800 -600 Descending FAA TRACON SMA TRACON (SMA)
06:22PM 39.0606 -90.4967 211° Southwest 231 266 6,500 -1,080 Descending FAA TRACON SMA TRACON (SMA)
06:22PM 39.0408 -90.5122 211° Southwest 221 254 6,100 -900 Descending FAA TRACON SMA TRACON (SMA)
06:22PM 39.0250 -90.5253 213° Southwest 219 252 5,900 -300 Descending FAA TRACON SMA TRACON (SMA)
06:23PM 39.0100 -90.5386 215° Southwest 215 247 5,900  Level FAA TRACON SMA TRACON (SMA)
06:23PM 38.9911 -90.5539 212° Southwest 209 241 5,900 -180 Level FAA TRACON SMA TRACON (SMA)
06:23PM 38.9764 -90.5667 214° Southwest 206 237 5,800 -660 Descending FAA TRACON SMA TRACON (SMA)
06:24PM 38.9611 -90.5792 212° Southwest 209 241 5,500 -1,080 Descending FAA TRACON SMA TRACON (SMA)
06:24PM 38.9422 -90.5947 213° Southwest 211 243 5,100 -900 Descending FAA TRACON SMA TRACON (SMA)
06:24PM 38.9244 -90.5981 188° South 216 249 4,900 -360 Descending FAA TRACON SMA TRACON (SMA)
06:25PM 38.9092 -90.5867 150° Southeast 216 249 4,900 -480 Level FAA TRACON SMA TRACON (SMA)
06:25PM 38.8906 -90.5706 146° Southeast 210 242 4,600 -900 Descending FAA TRACON SMA TRACON (SMA)
06:25PM 38.8753 -90.5575 146° Southeast 212 244 4,300 -960 Descending FAA TRACON SMA TRACON (SMA)
06:26PM 38.8606 -90.5447 146° Southeast 210 242 4,000 -1,080 Descending FAA TRACON SMA TRACON (SMA)
06:26PM 38.8467 -90.5219 128° Southeast 211 243 3,600 -1,200 Descending FAA TRACON SMA TRACON (SMA)
06:26PM 38.8369 -90.5025 123° Southeast 210 242 3,200 -960 Descending FAA TRACON SMA TRACON (SMA)
06:27PM 38.8278 -90.4842 123° Southeast 202 232 3,000 -480 Descending FAA TRACON SMA TRACON (SMA)
06:27PM 38.8178 -90.4631 121° Southeast 183 211 2,900 -600 Descending FAA TRACON SMA TRACON (SMA)
06:27PM 38.8106 -90.4469 120° Southeast 171 197 2,600 -780 Descending FAA TRACON SMA TRACON (SMA)
06:28PM 38.8033 -90.4325 123° Southeast 159 183 2,400 -780 Descending FAA TRACON SMA TRACON (SMA)
06:28PM 38.7942 -90.4147 123° Southeast 153 176 2,100 -600 Descending FAA TRACON SMA TRACON (SMA)
06:28PM 38.7872 -90.4008 123° Southeast 154 177 2,000 -660 Descending FAA TRACON SMA TRACON (SMA)
06:29PM 38.7806 -90.3875 123° Southeast 144 166 1,700 -780 Descending FAA TRACON SMA TRACON (SMA)
06:29PM 38.7744 -90.3753 123° Southeast 134 154 1,500 -780 Descending FAA TRACON SMA TRACON (SMA)
06:29PM 38.7672 -90.3608 123° Southeast 128 147 1,200 -780 Descending FAA TRACON SMA TRACON (SMA)
06:30PM 38.7611 -90.3489 123° Southeast 127 146 1,000 -600 Descending FAA TRACON SMA TRACON (SMA)
06:30PM 38.7553 -90.3375 123° Southeast 127 146 800 -600 Descending FAA TRACON SMA TRACON (SMA)
06:30PM 38.7494 -90.3256 122° Southeast 129 148 600 -600 Descending FAA TRACON SMA TRACON (SMA)
06:32PM 38.7333 -90.3667 153° Southeast  Level FlightAware Approximate
06:39PM 38.7487 -90.3700 153° Southeast  Level Estimated
06:40PM 38.7487 -90.3700 153° Southeast  Level Estimated
06:41PM 38.7487 -90.3700 153° Southeast  Level Estimated
06:42PM 38.7487 -90.3700 153° Southeast  Level Estimated
06:43PM 38.7487 -90.3700 153° Southeast  Level Estimated
06:44PM 38.7487 -90.3700 153° Southeast  Level Estimated
06:45PM 38.7487 -90.3700 153° Southeast  Level Estimated
06:46PM 38.7487 -90.3700 153° Southeast  Level Estimated
06:47PM 38.7487 -90.3700 153° Southeast  Level Estimated
06:48PM 38.7487 -90.3700 153° Southeast  Level Estimated